Terminal Aerodrome Forecast
Issued by NWS

Home | Current Version | Previous Version | Text Only | Print | Product List | Glossary On
Versions: 1 2 3 4 5 6 7 8 9 10 11 12
402
FTUS46 KLOX 191123
TAFSBA
TAF
KSBA 191123Z 1912/2012 VRB03KT P6SM SCT250
     FM191800 17007KT P6SM SCT250
     FM192100 27012KT P6SM BKN250
     FM200200 30008KT P6SM SCT080 BKN150
     FM200800 29007KT P6SM BKN015 OVC080=

USA.gov is the U.S. government's official web portal to all federal, state and local government web resources and services.